Time;durP1;ratioP1;P1;durP2;ratioP2;P2;SDS_P1;SDS_P2;PMS_P1;PMS_P2;Temp;Humidity;BMP_temperature;BMP_pressure;BME280_temperature;BME280_humidity;BME280_pressure;Samples;Min_cycle;Max_cycle;Signal;HPM_P1;HPM_P2
2022/01/23 00:00:58;;;;;;;45.28;27.02;;;;;;;4.16;94.93;103564.13;4770410;29;20055;-84
2022/01/23 00:03:24;;;;;;;45.60;27.30;;;;;;;4.16;95.12;103562.41;4786416;29;20046;-84
2022/01/23 00:05:51;;;;;;;43.28;28.13;;;;;;;4.15;95.23;103551.84;4786598;29;20063;-84
2022/01/23 00:08:22;;;;;;;42.33;28.05;;;;;;;4.17;95.01;103558.94;4787928;29;20028;-84
2022/01/23 00:10:51;;;;;;;40.28;26.75;;;;;;;4.14;95.14;103553.56;4771015;30;20520;-85
2022/01/23 00:17:16;;;;;;;41.97;27.02;;;;;;;4.19;95.38;103561.66;4771344;30;20031;-85
2022/01/23 00:19:06;;;;;;;38.08;27.00;;;;;;;4.17;95.10;103551.09;4771051;30;20428;-84
2022/01/23 00:21:33;;;;;;;41.78;25.88;;;;;;;4.18;95.07;103551.97;4741972;30;20035;-84
2022/01/23 00:31:53;;;;;;;36.33;24.55;;;;;;;4.17;94.88;103555.44;4772437;30;20054;-84
2022/01/23 00:34:19;;;;;;;38.58;26.00;;;;;;;4.12;94.90;103536.84;4771054;30;20349;-85
2022/01/23 00:36:45;;;;;;;39.70;25.73;;;;;;;4.19;95.18;103546.81;4771651;30;20112;-84
2022/01/23 00:39:11;;;;;;;38.22;25.27;;;;;;;4.18;94.79;103546.72;4756389;30;20069;-84
2022/01/23 00:41:55;;;;;;;40.08;25.20;;;;;;;4.21;95.29;103542.53;4757089;29;20142;-84
2022/01/23 00:44:20;;;;;;;40.45;27.23;;;;;;;4.18;94.82;103544.09;4772020;29;20057;-84
2022/01/23 00:46:50;;;;;;;40.63;26.92;;;;;;;4.17;95.20;103537.97;4756911;30;20110;-84
2022/01/23 00:49:25;;;;;;;37.92;26.48;;;;;;;4.17;95.19;103540.59;4757508;30;20043;-84
2022/01/23 00:51:51;;;;;;;38.25;24.52;;;;;;;4.16;94.76;103540.53;4771756;30;20112;-84
2022/01/23 00:54:16;;;;;;;35.15;24.48;;;;;;;4.17;94.99;103531.81;4756950;30;20031;-84
2022/01/23 00:56:42;;;;;;;37.63;24.10;;;;;;;4.19;94.66;103532.81;4772057;30;20450;-85
2022/01/23 00:59:08;;;;;;;36.28;24.80;;;;;;;4.17;94.86;103529.22;4757084;30;20127;-84
2022/01/23 01:01:34;;;;;;;37.88;25.13;;;;;;;4.18;94.51;103536.22;4771632;30;20176;-84
2022/01/23 01:03:59;;;;;;;35.83;25.02;;;;;;;4.15;94.55;103521.25;4786322;29;20494;-84
2022/01/23 01:06:25;;;;;;;37.00;23.40;;;;;;;4.17;94.67;103523.97;4787906;30;20036;-84
2022/01/23 01:08:54;;;;;;;35.00;22.73;;;;;;;4.14;94.31;103526.44;4756787;30;20473;-84
2022/01/23 01:37:44;;;;;;;35.92;23.27;;;;;;;4.18;94.31;103536.22;4771523;30;20035;-84
2022/01/23 01:40:10;;;;;;;33.35;22.83;;;;;;;4.17;94.30;103532.72;4771795;30;20047;-84
2022/01/23 01:42:40;;;;;;;33.88;23.05;;;;;;;4.17;94.68;103545.84;4770831;29;20491;-84
2022/01/23 01:45:06;;;;;;;38.20;24.27;;;;;;;4.15;95.16;103544.84;4770711;30;20063;-84
2022/01/23 01:47:55;;;;;;;36.58;23.23;;;;;;;4.17;94.44;103550.19;4758123;29;20440;-84
2022/01/23 01:50:21;;;;;;;34.40;22.98;;;;;;;4.18;94.28;103545.03;4742275;30;20046;-84
2022/01/23 01:52:47;;;;;;;35.75;22.58;;;;;;;4.16;94.32;103548.41;4770918;29;20039;-84
2022/01/23 01:55:23;;;;;;;34.67;21.55;;;;;;;4.16;94.81;103548.41;4770963;30;20039;-84
2022/01/23 01:57:55;;;;;;;38.40;21.98;;;;;;;4.16;94.54;103553.66;4770656;30;20051;-84
2022/01/23 02:00:54;;;;;;;33.97;19.88;;;;;;;4.18;94.64;103552.91;4774042;30;20039;-84
2022/01/23 02:08:17;;;;;;;30.38;19.92;;;;;;;4.18;94.20;103558.16;4770728;30;20066;-84
2022/01/23 02:08:58;;;;;;;32.70;21.60;;;;;;;4.20;94.36;103552.94;4785193;29;20107;-84
2022/01/23 02:12:07;;;;;;;36.08;22.33;;;;;;;4.19;94.33;103548.53;4741142;30;20062;-85
2022/01/23 02:25:30;;;;;;;33.87;20.67;;;;;;;4.21;94.14;103520.66;4740595;30;20130;-85
2022/01/23 02:55:25;;;;;;;23.33;17.52;;;;;;;4.14;94.57;103503.72;4767357;30;20500;-84
2022/01/23 02:58:00;;;;;;;27.15;17.83;;;;;;;4.13;94.50;103506.28;4739621;30;20178;-84
2022/01/23 03:00:35;;;;;;;25.17;17.85;;;;;;;4.14;94.44;103502.84;4739085;30;20477;-84
2022/01/23 03:03:24;;;;;;;30.08;19.27;;;;;;;4.15;94.92;103508.13;4755515;30;20051;-84
2022/01/23 03:11:55;;;;;;;26.25;17.77;;;;;;;4.18;94.32;103513.56;4741923;30;20040;-85
2022/01/23 03:34:51;;;;;;;27.88;17.05;;;;;;;4.17;94.25;103518.72;4737985;30;20040;-84
2022/01/23 03:37:17;;;;;;;27.73;18.65;;;;;;;4.20;94.63;103526.72;4737521;30;20528;-85
2022/01/23 03:39:42;;;;;;;27.42;18.00;;;;;;;4.20;94.30;103519.75;4737688;30;20086;-84
2022/01/23 03:42:08;;;;;;;29.42;18.35;;;;;;;4.20;94.70;103524.09;4766912;30;20081;-84
2022/01/23 03:44:39;;;;;;;32.35;19.02;;;;;;;4.19;94.37;103528.44;4738172;30;20035;-84
2022/01/23 03:50:11;;;;;;;27.33;18.40;;;;;;;4.17;94.09;103526.59;4682109;30;20045;-84
2022/01/23 03:52:42;;;;;;;33.13;19.35;;;;;;;4.18;94.56;103531.91;4701702;30;20155;-85
2022/01/23 03:55:08;;;;;;;28.35;19.55;;;;;;;4.18;94.35;103523.13;4737603;30;20056;-84
2022/01/23 03:57:35;;;;;;;29.70;17.83;;;;;;;4.18;94.26;103533.63;4740284;30;20370;-84
2022/01/23 04:00:02;;;;;;;28.38;18.02;;;;;;;4.14;94.67;103537.81;4754896;30;20401;-84
2022/01/23 04:02:28;;;;;;;28.00;17.88;;;;;;;4.17;94.63;103543.22;4755203;30;20036;-85
2022/01/23 04:04:53;;;;;;;28.25;18.17;;;;;;;4.18;94.52;103544.09;4711223;30;20038;-84
2022/01/23 04:07:25;;;;;;;30.13;17.73;;;;;;;4.19;94.60;103546.81;4769114;30;20070;-84
2022/01/23 04:09:51;;;;;;;25.50;16.98;;;;;;;4.19;94.57;103548.53;4769372;30;20040;-84
2022/01/23 04:14:57;;;;;;;29.25;17.65;;;;;;;4.19;94.20;103543.28;4769409;30;20079;-84
2022/01/23 04:33:51;;;;;;;28.70;18.75;;;;;;;4.23;94.26;103545.25;4787043;29;20062;-84
2022/01/23 05:01:01;;;;;;;31.92;20.45;;;;;;;4.11;94.61;103547.28;4729116;30;20059;-84
2022/01/23 05:06:23;;;;;;;33.25;20.08;;;;;;;4.12;94.77;103543.81;4776701;30;20059;-84
2022/01/23 05:09:02;;;;;;;28.95;19.83;;;;;;;4.09;94.90;103537.59;4771606;29;20130;-85
2022/01/23 05:11:32;;;;;;;30.13;18.87;;;;;;;4.11;94.96;103540.31;4743374;30;20523;-84
2022/01/23 05:14:11;;;;;;;26.50;17.73;;;;;;;4.11;94.65;103539.41;4758250;30;20305;-85
2022/01/23 05:16:36;;;;;;;29.10;19.30;;;;;;;4.09;94.96;103544.56;4740385;29;20055;-84
2022/01/23 05:19:03;;;;;;;31.88;20.33;;;;;;;4.08;94.92;103548.94;4741850;30;20035;-85
2022/01/23 05:24:13;;;;;;;28.52;19.48;;;;;;;4.09;95.25;103541.97;4786210;29;20093;-84
2022/01/23 05:26:44;;;;;;;26.05;18.50;;;;;;;4.09;94.70;103544.56;4771437;29;20139;-84
2022/01/23 05:29:11;;;;;;;28.58;19.85;;;;;;;4.09;94.72;103547.19;4771360;30;20046;-84
2022/01/23 05:31:37;;;;;;;33.28;20.65;;;;;;;4.08;94.88;103554.19;4771269;30;20043;-84
2022/01/23 05:34:04;;;;;;;31.38;20.90;;;;;;;4.09;94.81;103555.06;4756345;30;20043;-84
2022/01/23 05:36:30;;;;;;;36.30;19.08;;;;;;;4.09;94.96;103548.09;4771058;30;20134;-84
2022/01/23 05:38:56;;;;;;;29.10;19.23;;;;;;;4.12;95.36;103547.34;4770991;29;20050;-84
2022/01/23 05:41:22;;;;;;;31.10;19.30;;;;;;;4.13;95.54;103548.22;4770918;29;20035;-85
2022/01/23 05:43:48;;;;;;;32.60;19.70;;;;;;;4.07;94.97;103540.97;4771005;30;20062;-84
2022/01/23 05:46:13;;;;;;;29.90;19.65;;;;;;;4.09;94.65;103550.72;4770752;29;20139;-84
2022/01/23 05:48:56;;;;;;;33.17;19.45;;;;;;;4.07;94.92;103554.97;4773174;30;20095;-84
2022/01/23 05:51:57;;;;;;;33.27;19.23;;;;;;;4.09;94.86;103555.06;4761150;29;20051;-84
2022/01/23 05:54:41;;;;;;;31.23;19.90;;;;;;;4.08;94.87;103545.41;4758035;30;20142;-84
2022/01/23 05:57:26;;;;;;;31.38;20.02;;;;;;;4.10;94.93;103546.38;4760839;29;20090;-84
2022/01/23 06:00:08;;;;;;;32.55;19.48;;;;;;;4.10;94.71;103548.97;4785751;29;20443;-84
2022/01/23 06:02:50;;;;;;;33.58;20.13;;;;;;;4.11;94.61;103539.41;4773087;29;20444;-84
2022/01/23 06:05:16;;;;;;;35.00;21.13;;;;;;;4.11;95.00;103545.56;4741491;30;20488;-84
2022/01/23 06:07:51;;;;;;;33.58;20.73;;;;;;;4.08;94.81;103542.78;4786321;29;20039;-84
2022/01/23 06:10:26;;;;;;;34.45;21.40;;;;;;;4.13;94.61;103541.28;4755906;30;20066;-84
2022/01/23 06:12:52;;;;;;;37.45;21.33;;;;;;;4.12;94.48;103542.09;4770696;30;20112;-85
2022/01/23 06:15:21;;;;;;;34.17;20.92;;;;;;;4.12;95.13;103551.69;4770499;30;20039;-85
2022/01/23 06:17:47;;;;;;;30.48;20.63;;;;;;;4.11;94.84;103548.19;4757482;30;20493;-84
2022/01/23 06:20:31;;;;;;;27.60;19.80;;;;;;;4.14;94.47;103552.66;4755636;30;20101;-84
2022/01/23 06:23:15;;;;;;;30.63;20.08;;;;;;;4.12;94.87;103549.97;4742825;30;20062;-84
2022/01/23 06:26:02;;;;;;;33.40;21.67;;;;;;;4.15;94.84;103554.47;4755268;30;20124;-85
2022/01/23 06:28:50;;;;;;;30.83;21.45;;;;;;;4.14;94.92;103550.94;4767685;30;20134;-84
2022/01/23 06:31:16;;;;;;;35.80;21.40;;;;;;;4.15;94.83;103555.34;4767688;30;20100;-84
2022/01/23 06:33:42;;;;;;;36.17;21.67;;;;;;;4.14;94.73;103553.56;4767690;30;20047;-84
2022/01/23 06:36:08;;;;;;;39.35;22.25;;;;;;;4.14;94.61;103558.81;4752769;30;20039;-85
2022/01/23 06:38:35;;;;;;;30.48;20.63;;;;;;;4.13;94.98;103558.72;4752800;30;20027;-84
2022/01/23 06:41:03;;;;;;;30.17;21.05;;;;;;;4.09;94.47;103553.34;4752527;30;20044;-84
2022/01/23 06:43:40;;;;;;;33.67;21.88;;;;;;;4.14;94.83;103568.41;4754715;30;20039;-84
2022/01/23 06:46:12;;;;;;;34.72;22.45;;;;;;;4.14;94.90;103561.44;4767731;30;20071;-84
2022/01/23 06:48:37;;;;;;;31.25;21.77;;;;;;;4.14;95.03;103565.78;4767718;30;20056;-84
2022/01/23 06:51:03;;;;;;;35.35;22.02;;;;;;;4.15;94.96;103568.47;4738030;30;20028;-84
2022/01/23 06:53:29;;;;;;;29.58;20.63;;;;;;;4.16;94.99;103569.38;4752544;30;20048;-84
2022/01/23 06:55:55;;;;;;;37.25;21.45;;;;;;;4.14;95.07;103563.16;4767420;30;20062;-84
2022/01/23 06:58:20;;;;;;;38.83;20.95;;;;;;;4.13;94.82;103570.13;4723562;30;20464;-83
2022/01/23 07:00:46;;;;;;;33.85;22.08;;;;;;;4.14;94.81;103576.28;4752476;30;20120;-84
2022/01/23 07:03:26;;;;;;;33.00;22.10;;;;;;;4.14;94.65;103574.53;4741634;30;20066;-84
2022/01/23 07:06:15;;;;;;;34.80;21.50;;;;;;;4.15;94.81;103576.31;4757843;29;20400;-82
2022/01/23 07:09:08;;;;;;;31.23;21.85;;;;;;;4.16;94.90;103582.50;4746892;29;20035;-82
2022/01/23 07:12:00;;;;;;;39.92;22.27;;;;;;;4.15;94.81;103589.44;4771145;29;20533;-82
2022/01/23 07:14:58;;;;;;;34.75;21.48;;;;;;;4.15;94.69;103585.94;4768160;29;20135;-82
2022/01/23 07:17:50;;;;;;;;;;;;;;;4.18;94.96;103589.63;4773703;29;20422;-82
2022/01/23 07:20:38;;;;;;;36.65;21.67;;;;;;;4.13;94.58;103584.94;4772599;29;20015;-82
2022/01/23 07:23:10;;;;;;;31.23;19.95;;;;;;;4.13;94.83;103592.81;4773777;30;20047;-83
2022/01/23 07:25:41;;;;;;;34.60;22.95;;;;;;;4.13;95.06;103592.81;4773282;30;20070;-82
2022/01/23 07:28:11;;;;;;;32.90;22.23;;;;;;;4.10;94.75;103590.94;4758770;30;20043;-83
2022/01/23 07:30:43;;;;;;;43.38;23.52;;;;;;;4.12;95.20;103601.53;4773859;30;20076;-83
2022/01/23 07:33:09;;;;;;;35.53;20.85;;;;;;;4.13;94.54;103608.56;4773325;30;20054;-83
2022/01/23 07:35:34;;;;;;;32.30;20.45;;;;;;;4.14;94.91;103615.63;4770275;30;20134;-83
2022/01/23 07:38:00;;;;;;;35.25;22.90;;;;;;;4.13;94.62;103622.59;4770450;30;20361;-82
2022/01/23 07:40:25;;;;;;;35.33;22.60;;;;;;;4.13;94.64;103624.28;4770783;30;20115;-83
2022/01/23 07:42:54;;;;;;;34.00;22.45;;;;;;;4.12;94.88;103612.91;4769675;30;20054;-83
2022/01/23 07:45:39;;;;;;;32.15;21.42;;;;;;;4.10;95.06;103622.41;4757778;30;20046;-82
2022/01/23 07:48:20;;;;;;;35.35;23.42;;;;;;;4.12;94.72;103622.50;4769667;30;20106;-82
2022/01/23 07:50:51;;;;;;;;;;;;;;;4.18;95.14;103628.97;4756557;30;20617;-82
2022/01/23 07:53:37;;;;;;;34.72;22.08;;;;;;;4.15;94.95;103622.66;4757570;30;19922;-82
2022/01/23 07:56:09;;;;;;;33.17;21.85;;;;;;;4.14;95.31;103626.09;4754750;30;20040;-82
2022/01/23 07:58:49;;;;;;;33.30;21.42;;;;;;;4.14;95.06;103632.25;4756399;30;20050;-82
2022/01/23 08:01:39;;;;;;;32.95;22.13;;;;;;;4.14;95.28;103634.88;4769626;30;20052;-82
2022/01/23 08:04:28;;;;;;;33.78;23.15;;;;;;;4.16;95.10;103632.34;4745117;30;20052;-82
2022/01/23 08:07:08;;;;;;;35.45;23.73;;;;;;;4.15;95.09;103625.28;4766971;29;20391;-82
2022/01/23 08:09:56;;;;;;;37.10;23.02;;;;;;;4.16;95.02;103627.09;4775029;30;20047;-82
2022/01/23 08:12:23;;;;;;;41.08;25.33;;;;;;;4.16;95.42;103625.34;4772690;30;20053;-82
2022/01/23 08:14:49;;;;;;;35.55;22.98;;;;;;;4.18;95.04;103626.34;4787529;29;20046;-82
2022/01/23 08:17:15;;;;;;;37.60;22.52;;;;;;;4.17;94.90;103631.50;4788525;29;20434;-82
2022/01/23 08:19:40;;;;;;;42.35;23.10;;;;;;;4.19;95.23;103635.09;4772476;30;20046;-82
2022/01/23 08:22:06;;;;;;;32.78;22.08;;;;;;;4.20;94.61;103627.28;4786767;29;20100;-82
2022/01/23 08:24:31;;;;;;;30.67;21.63;;;;;;;4.21;95.20;103629.09;4771522;30;20086;-82
2022/01/23 08:26:57;;;;;;;35.30;22.70;;;;;;;4.23;95.15;103637.06;4787034;29;20426;-82
2022/01/23 08:29:23;;;;;;;34.10;22.80;;;;;;;4.23;94.88;103632.72;4772196;30;20431;-83
2022/01/23 08:31:48;;;;;;;40.72;22.85;;;;;;;4.24;94.96;103631.88;4786724;29;20054;-82
2022/01/23 08:34:14;;;;;;;35.63;23.63;;;;;;;4.27;94.84;103639.00;4772029;30;20101;-83
2022/01/23 08:36:40;;;;;;;38.55;22.85;;;;;;;4.27;95.10;103639.88;4771650;30;20044;-83
2022/01/23 08:39:06;;;;;;;39.78;24.20;;;;;;;4.32;95.15;103642.72;4762254;30;20086;-82
2022/01/23 08:41:50;;;;;;;40.08;23.88;;;;;;;4.33;94.94;103644.56;4738675;30;20085;-82
2022/01/23 08:44:20;;;;;;;42.63;23.45;;;;;;;4.36;95.24;103649.03;4740532;30;20059;-82
2022/01/23 08:46:45;;;;;;;42.60;24.40;;;;;;;4.37;94.73;103640.34;4753545;30;20451;-83
2022/01/23 08:49:11;;;;;;;42.47;25.00;;;;;;;4.38;94.76;103648.28;4738364;30;20294;-82
2022/01/23 08:51:37;;;;;;;35.83;22.98;;;;;;;4.41;94.91;103648.44;4738719;30;20155;-81
2022/01/23 08:54:03;;;;;;;36.67;25.20;;;;;;;4.42;94.73;103650.22;4750037;30;20042;-81
2022/01/23 08:56:30;;;;;;;36.35;23.75;;;;;;;4.43;94.34;103662.53;4779655;29;20111;-80
2022/01/23 08:58:55;;;;;;;36.08;23.92;;;;;;;4.46;94.46;103664.41;4782307;30;20507;-81
2022/01/23 09:01:22;;;;;;;44.38;25.23;;;;;;;4.46;94.38;103665.31;4752969;30;20043;-80
2022/01/23 09:03:48;;;;;;;43.90;25.65;;;;;;;4.49;94.73;103657.56;4768652;30;20051;-80
2022/01/23 09:06:13;;;;;;;43.80;24.83;;;;;;;4.51;94.62;103663.78;4752750;30;20044;-80
2022/01/23 09:08:40;;;;;;;38.22;24.30;;;;;;;4.52;94.70;103668.25;4752572;30;20056;-80
2022/01/23 09:11:56;;;;;;;35.85;23.98;;;;;;;4.52;94.24;103663.00;4752652;30;20043;-80
2022/01/23 09:14:07;;;;;;;38.20;25.30;;;;;;;4.57;94.23;103663.19;4766241;30;20063;-81
2022/01/23 09:16:35;;;;;;;37.65;24.98;;;;;;;4.57;94.42;103660.56;4773504;29;20043;-81
2022/01/23 09:19:01;;;;;;;46.25;25.55;;;;;;;4.56;94.11;103658.78;4767471;30;20038;-81
2022/01/23 09:21:26;;;;;;;39.45;24.80;;;;;;;4.57;94.21;103655.31;4737858;30;20044;-81
2022/01/23 09:23:52;;;;;;;38.90;25.50;;;;;;;4.58;93.97;103654.50;4747972;30;20481;-81
2022/01/23 09:26:21;;;;;;;38.63;24.38;;;;;;;4.61;94.25;103666.88;4752503;30;20058;-81
2022/01/23 09:28:47;;;;;;;41.00;25.55;;;;;;;4.60;94.28;103660.72;4766739;30;20130;-80
2022/01/23 09:31:15;;;;;;;42.42;25.77;;;;;;;4.63;94.15;103659.97;4768430;30;20296;-80
2022/01/23 09:33:40;;;;;;;44.53;26.73;;;;;;;4.63;94.39;103652.09;4752517;30;20107;-80
2022/01/23 09:36:06;;;;;;;42.17;25.38;;;;;;;4.63;93.80;103658.25;4763329;30;20103;-81
2022/01/23 09:38:33;;;;;;;40.20;26.45;;;;;;;4.64;93.88;103662.66;4766983;30;20453;-81
2022/01/23 09:40:59;;;;;;;40.15;25.77;;;;;;;4.61;93.88;103654.63;4752114;30;20077;-80
2022/01/23 09:43:27;;;;;;;42.92;28.23;;;;;;;4.65;94.09;103664.47;4766088;30;20048;-80
2022/01/23 09:45:54;;;;;;;45.10;27.55;;;;;;;4.67;93.84;103667.16;4781945;29;20120;-81
2022/01/23 09:48:21;;;;;;;43.33;27.15;;;;;;;4.67;94.16;103669.78;4751995;30;20108;-81
2022/01/23 09:50:51;;;;;;;43.40;26.45;;;;;;;4.72;94.05;103668.25;4768732;30;20063;-80
2022/01/23 09:53:20;;;;;;;41.25;27.48;;;;;;;4.72;93.91;103674.44;4752085;30;20468;-80
2022/01/23 09:55:46;;;;;;;45.60;28.20;;;;;;;4.76;94.19;103674.59;4777577;30;20484;-80
2022/01/23 09:58:14;;;;;;;44.28;27.88;;;;;;;4.78;94.63;103680.81;4769748;30;20061;-81
2022/01/23 10:00:40;;;;;;;46.22;27.73;;;;;;;4.79;93.71;103685.22;4784573;30;20150;-80
2022/01/23 10:03:07;;;;;;;46.38;29.67;;;;;;;4.80;94.21;103672.19;4754768;30;20039;-81
2022/01/23 10:05:33;;;;;;;48.08;27.77;;;;;;;4.83;94.04;103679.28;4755041;29;20449;-81
2022/01/23 10:08:00;;;;;;;52.83;29.30;;;;;;;4.87;93.46;103687.41;4784509;30;20035;-81
2022/01/23 10:10:31;;;;;;;39.95;26.05;;;;;;;4.90;93.67;103678.75;4769658;30;20047;-80
2022/01/23 10:12:59;;;;;;;;;;;;;;;4.95;93.66;103683.41;4784737;29;20039;-83
2022/01/23 10:15:28;;;;;;;52.35;28.98;;;;;;;4.93;93.32;103686.78;4760738;29;20343;-82
2022/01/23 10:17:55;;;;;;;44.67;28.05;;;;;;;4.94;93.57;103681.56;4785320;29;20086;-82
2022/01/23 10:20:20;;;;;;;46.70;28.88;;;;;;;4.96;93.35;103682.56;4789438;29;20502;-82
2022/01/23 10:22:50;;;;;;;46.15;27.77;;;;;;;4.98;93.17;103679.13;4768761;29;20122;-84
2022/01/23 10:25:20;;;;;;;48.60;29.55;;;;;;;5.02;93.07;103681.03;4769417;29;20048;-82
2022/01/23 10:28:20;;;;;;;44.85;27.52;;;;;;;5.05;93.29;103674.22;4756570;29;20383;-82
2022/01/23 10:30:50;;;;;;;42.40;27.80;;;;;;;5.05;92.77;103678.59;4768239;29;20222;-82
2022/01/23 10:33:25;;;;;;;45.22;27.30;;;;;;;5.09;93.71;103676.13;4769119;29;20047;-82
2022/01/23 10:35:53;;;;;;;42.00;28.65;;;;;;;5.14;93.81;103671.09;4782387;29;20111;-82
2022/01/23 10:38:20;;;;;;;45.30;27.88;;;;;;;5.13;93.21;103667.56;4783085;29;20069;-82
2022/01/23 10:40:54;;;;;;;46.75;28.38;;;;;;;5.20;93.05;103668.78;4771426;29;20047;-82
2022/01/23 10:48:35;;;;;;;42.25;26.52;;;;;;;5.31;92.31;103674.50;4772346;29;20050;-82
2022/01/23 10:51:19;;;;;;;48.70;28.70;;;;;;;5.37;93.10;103677.44;4780585;29;20054;-82
2022/01/23 10:54:13;;;;;;;44.25;27.13;;;;;;;5.39;92.86;103671.41;4786445;29;20112;-82
2022/01/23 10:57:06;;;;;;;43.25;27.95;;;;;;;5.44;93.58;103671.63;4787761;29;20138;-82
2022/01/23 10:59:47;;;;;;;44.60;26.50;;;;;;;5.49;93.08;103667.47;4775451;29;20075;-82
2022/01/23 11:02:24;;;;;;;43.13;26.92;;;;;;;5.53;92.87;103671.09;4773346;29;20114;-82
2022/01/23 11:04:53;;;;;;;45.63;26.83;;;;;;;5.54;92.50;103671.19;4787334;29;20067;-82
2022/01/23 11:07:20;;;;;;;44.80;27.50;;;;;;;5.58;92.55;103665.22;4787886;29;20035;-82
2022/01/23 11:09:47;;;;;;;45.05;27.42;;;;;;;5.60;91.83;103662.66;4773923;29;20067;-82
2022/01/23 11:12:41;;;;;;;43.88;27.95;;;;;;;5.61;92.90;103656.56;4771972;29;20096;-84
2022/01/23 11:17:58;;;;;;;46.05;26.63;;;;;;;5.64;91.88;103654.09;4787780;29;20506;-82
2022/01/23 11:20:41;;;;;;;41.28;27.13;;;;;;;5.65;91.83;103652.34;4773164;30;20459;-82
2022/01/23 11:23:24;;;;;;;42.63;27.13;;;;;;;5.66;92.07;103647.13;4789727;29;20035;-82
2022/01/23 11:25:52;;;;;;;44.05;27.08;;;;;;;5.71;91.40;103645.63;4771299;30;20051;-82
2022/01/23 11:28:19;;;;;;;49.60;27.90;;;;;;;5.70;91.26;103643.81;4769095;30;20082;-82
2022/01/23 11:30:47;;;;;;;37.53;24.30;;;;;;;5.73;92.11;103646.56;4769441;30;20489;-82
2022/01/23 11:33:17;;;;;;;48.35;27.60;;;;;;;5.76;93.31;103640.56;4769018;30;20043;-82
2022/01/23 11:35:43;;;;;;;41.70;27.75;;;;;;;5.82;93.01;103644.34;4757226;30;20085;-82
2022/01/23 11:38:16;;;;;;;42.80;27.35;;;;;;;5.84;91.75;103638.28;4786971;29;20031;-82
2022/01/23 11:54:38;;;;;;;41.58;27.10;;;;;;;5.99;91.41;103631.06;4786583;30;20068;-82
2022/01/23 11:57:24;;;;;;;45.22;27.65;;;;;;;5.97;91.61;103623.09;4786795;29;20031;-82
2022/01/23 12:00:14;;;;;;;48.95;26.75;;;;;;;5.99;91.45;103625.81;4774654;30;20044;-82
2022/01/23 12:02:42;;;;;;;38.95;25.00;;;;;;;5.98;91.13;103623.97;4789246;29;20043;-83
2022/01/23 12:05:15;;;;;;;42.28;24.88;;;;;;;5.99;91.53;103623.16;4788172;29;20049;-83
2022/01/23 12:07:44;;;;;;;40.45;23.95;;;;;;;6.00;91.91;103628.47;4772715;30;20039;-82
2022/01/23 12:12:51;;;;;;;39.75;24.10;;;;;;;6.05;91.39;103612.88;4788746;29;20074;-83
2022/01/23 12:18:25;;;;;;;36.78;23.02;;;;;;;6.09;91.29;103616.56;4788308;29;20092;-83
2022/01/23 12:20:52;;;;;;;40.88;24.38;;;;;;;6.10;91.05;103616.59;4772498;30;20031;-82
2022/01/23 12:23:19;;;;;;;46.35;25.65;;;;;;;6.13;91.20;103607.94;4772663;29;20038;-83
2022/01/23 12:25:50;;;;;;;42.95;25.08;;;;;;;6.10;91.62;103595.56;4769662;30;20055;-82
2022/01/23 12:28:20;;;;;;;;;;;;;;;6.19;92.18;103600.31;4770968;30;20059;-82
2022/01/23 12:30:48;;;;;;;38.15;24.10;;;;;;;6.11;90.59;103605.25;4784249;29;19918;-82
2022/01/23 12:33:19;;;;;;;38.30;23.70;;;;;;;6.15;91.17;103603.63;4755052;30;20740;-83
2022/01/23 12:35:48;;;;;;;41.60;25.10;;;;;;;6.15;91.44;103593.13;4769282;30;20115;-82
2022/01/23 12:38:15;;;;;;;47.10;25.67;;;;;;;6.17;91.07;103602.88;4784196;29;21091;-83
2022/01/23 12:40:45;;;;;;;46.10;25.27;;;;;;;6.14;91.34;103589.59;4769481;30;20055;-82
2022/01/23 12:43:25;;;;;;;45.43;26.33;;;;;;;6.18;90.86;103593.22;4769152;30;20180;-83
2022/01/23 12:46:00;;;;;;;41.22;24.42;;;;;;;6.19;91.07;103593.31;4783953;29;20058;-82
2022/01/23 12:48:26;;;;;;;42.22;24.35;;;;;;;6.22;91.16;103595.16;4783702;29;20165;-82
2022/01/23 12:50:55;;;;;;;36.53;23.85;;;;;;;6.19;90.79;103587.16;4769011;30;20122;-83
2022/01/23 12:53:20;;;;;;;38.35;22.75;;;;;;;6.25;91.02;103587.38;4769290;30;20040;-83
2022/01/23 12:56:11;;;;;;;39.42;24.13;;;;;;;6.27;91.26;103583.09;4766122;30;20043;-82
2022/01/23 12:58:37;;;;;;;36.00;22.20;;;;;;;6.27;90.52;103587.44;4766272;30;20474;-82
2022/01/23 13:01:24;;;;;;;37.92;23.00;;;;;;;6.29;91.39;103586.69;4752631;30;20054;-83
2022/01/23 13:04:02;;;;;;;35.63;22.23;;;;;;;6.32;91.33;103580.63;4780854;29;20050;-82
2022/01/23 13:06:56;;;;;;;39.50;24.25;;;;;;;6.32;90.98;103578.00;4751229;30;20028;-82
2022/01/23 13:18:18;;;;;;;43.83;25.40;;;;;;;6.24;90.12;103568.06;4768014;30;20298;-82
2022/01/23 13:30:00;;;;;;;39.17;25.70;;;;;;;6.22;89.92;103575.00;4783764;29;20546;-82
2022/01/23 13:31:59;;;;;;;43.35;24.25;;;;;;;6.14;89.00;103565.91;4764188;30;20089;-83
2022/01/23 13:34:36;;;;;;;34.67;22.00;;;;;;;6.16;90.67;103566.88;4768390;30;20055;-83
2022/01/23 13:37:12;;;;;;;43.20;25.80;;;;;;;6.16;90.03;103571.25;4783513;30;20457;-82
2022/01/23 13:40:03;;;;;;;42.97;25.63;;;;;;;6.19;90.22;103571.38;4769959;30;20361;-83
2022/01/23 13:48:28;;;;;;;46.38;26.42;;;;;;;6.18;89.24;103564.28;4783050;29;20090;-83
2022/01/23 13:59:49;;;;;;;40.38;25.85;;;;;;;6.11;89.61;103562.25;4767640;30;20138;-82
2022/01/23 14:02:28;;;;;;;40.97;23.83;;;;;;;6.07;89.15;103561.22;4767719;30;20039;-82
2022/01/23 14:05:11;;;;;;;42.75;25.17;;;;;;;6.06;89.38;103556.81;4782648;29;20047;-82
2022/01/23 14:07:38;;;;;;;39.55;24.05;;;;;;;6.03;89.35;103552.34;4767671;30;20043;-82
2022/01/23 14:10:33;;;;;;;40.28;24.35;;;;;;;6.06;90.37;103548.94;4766876;30;20023;-81
2022/01/23 14:13:12;;;;;;;37.42;24.02;;;;;;;6.08;89.89;103548.97;4781546;29;20050;-80
2022/01/23 14:15:45;;;;;;;38.95;24.52;;;;;;;6.08;89.93;103546.34;4774902;29;20040;-81
2022/01/23 14:18:14;;;;;;;43.58;25.55;;;;;;;6.09;89.14;103542.91;4781485;29;20040;-82
2022/01/23 14:20:47;;;;;;;39.00;23.40;;;;;;;6.10;89.80;103549.94;4766660;30;20437;-81
2022/01/23 14:23:17;;;;;;;41.08;24.50;;;;;;;6.08;89.28;103549.84;4768503;30;20135;-82
2022/01/23 14:26:08;;;;;;;40.97;24.50;;;;;;;6.10;89.29;103552.56;4766472;30;20052;-81
2022/01/23 14:28:45;;;;;;;37.25;24.58;;;;;;;6.08;89.03;103557.75;4770696;29;20519;-82
2022/01/23 14:31:23;;;;;;;39.42;24.60;;;;;;;6.08;89.21;103555.13;4781549;29;20453;-82
2022/01/23 14:33:53;;;;;;;34.80;22.63;;;;;;;6.09;89.22;103559.56;4766656;30;20108;-83
2022/01/23 14:36:21;;;;;;;41.75;24.15;;;;;;;6.08;89.36;103559.50;4766997;30;20051;-83
2022/01/23 14:38:58;;;;;;;39.65;23.13;;;;;;;6.07;89.60;103558.59;4752240;30;20050;-83
2022/01/23 14:41:25;;;;;;;38.75;22.92;;;;;;;6.06;89.26;103564.72;4768491;30;20051;-82
2022/01/23 14:43:51;;;;;;;37.33;22.75;;;;;;;6.06;88.52;103562.09;4766804;30;20126;-83
2022/01/23 14:46:16;;;;;;;40.63;24.27;;;;;;;6.03;88.47;103562.84;4752182;30;20189;-83
2022/01/23 14:48:46;;;;;;;35.97;22.60;;;;;;;6.08;89.46;103564.75;4768131;30;20096;-82
2022/01/23 14:51:20;;;;;;;41.40;24.38;;;;;;;6.07;88.07;103558.59;4777621;29;20051;-83
2022/01/23 14:53:47;;;;;;;39.88;22.05;;;;;;;6.06;87.84;103562.09;4766553;30;20483;-83
2022/01/23 14:56:14;;;;;;;40.25;23.55;;;;;;;6.07;87.48;103562.97;4765815;30;20105;-83
2022/01/23 14:58:41;;;;;;;36.53;22.80;;;;;;;6.06;87.98;103556.81;4767758;30;20070;-83
2022/01/23 15:01:10;;;;;;;38.45;23.23;;;;;;;6.06;88.06;103561.16;4779931;29;20038;-83
2022/01/23 15:03:37;;;;;;;38.28;23.63;;;;;;;6.04;87.90;103555.84;4781437;29;20155;-83
2022/01/23 15:06:03;;;;;;;42.50;24.15;;;;;;;6.05;88.38;103557.63;4752075;30;20028;-83
2022/01/23 15:08:30;;;;;;;38.58;24.25;;;;;;;6.03;87.71;103556.69;4766132;30;20105;-83
2022/01/23 15:11:00;;;;;;;37.45;24.20;;;;;;;6.01;87.78;103559.25;4737354;30;20032;-83
2022/01/23 15:13:29;;;;;;;37.13;23.43;;;;;;;6.03;88.51;103560.22;4766017;30;20048;-83
2022/01/23 15:15:56;;;;;;;44.63;25.48;;;;;;;6.00;88.69;103559.19;4767526;30;20390;-83
2022/01/23 15:18:22;;;;;;;37.03;23.02;;;;;;;6.00;88.62;103561.81;4750566;30;20058;-83